Map

Track Data

SID SEASON NUMBER BASIN SUBBASIN NAME ISO_TIME NATURE LAT LON WMO_WIND WMO_PRES WMO_AGENCY TRACK_TYPE DIST2LAND LANDFALL IFLAG USA_AGENCY USA_ATCF_ID USA_LAT USA_LON USA_RECORD USA_STATUS USA_WIND USA_PRES USA_SSHS USA_R34_NE USA_R34_SE USA_R34_SW USA_R34_NW USA_R50_NE USA_R50_SE USA_R50_SW USA_R50_NW USA_R64_NE USA_R64_SE USA_R64_SW USA_R64_NW USA_POCI USA_ROCI USA_RMW USA_EYE TOKYO_LAT TOKYO_LON TOKYO_GRADE TOKYO_WIND TOKYO_PRES TOKYO_R50_DIR TOKYO_R50_LONG TOKYO_R50_SHORT TOKYO_R30_DIR TOKYO_R30_LONG TOKYO_R30_SHORT TOKYO_LAND CMA_LAT CMA_LON CMA_CAT CMA_WIND CMA_PRES HKO_LAT HKO_LON HKO_CAT HKO_WIND HKO_PRES NEWDELHI_LAT NEWDELHI_LON NEWDELHI_GRADE NEWDELHI_WIND NEWDELHI_PRES NEWDELHI_CI NEWDELHI_DP NEWDELHI_POCI REUNION_LAT REUNION_LON REUNION_TYPE REUNION_WIND REUNION_PRES REUNION_TNUM REUNION_CI REUNION_RMW REUNION_R34_NE REUNION_R34_SE REUNION_R34_SW REUNION_R34_NW REUNION_R50_NE REUNION_R50_SE REUNION_R50_SW REUNION_R50_NW REUNION_R64_NE REUNION_R64_SE REUNION_R64_SW REUNION_R64_NW BOM_LAT BOM_LON BOM_TYPE BOM_WIND BOM_PRES BOM_TNUM BOM_CI BOM_RMW BOM_R34_NE BOM_R34_SE BOM_R34_SW BOM_R34_NW BOM_R50_NE BOM_R50_SE BOM_R50_SW BOM_R50_NW BOM_R64_NE BOM_R64_SE BOM_R64_SW BOM_R64_NW BOM_ROCI BOM_POCI BOM_EYE BOM_POS_METHOD BOM_PRES_METHOD NADI_LAT NADI_LON NADI_CAT NADI_WIND NADI_PRES WELLINGTON_LAT WELLINGTON_LON WELLINGTON_WIND WELLINGTON_PRES DS824_LAT DS824_LON DS824_STAGE DS824_WIND DS824_PRES TD9636_LAT TD9636_LON TD9636_STAGE TD9636_WIND TD9636_PRES TD9635_LAT TD9635_LON TD9635_WIND TD9635_PRES TD9635_ROCI NEUMANN_LAT NEUMANN_LON NEUMANN_CLASS NEUMANN_WIND NEUMANN_PRES MLC_LAT MLC_LON MLC_CLASS MLC_WIND MLC_PRES USA_GUST BOM_GUST BOM_GUST_PER REUNION_GUST REUNION_GUST_PER USA_SEAHGT USA_SEARAD_NE USA_SEARAD_SE USA_SEARAD_SW USA_SEARAD_NW STORM_SPEED STORM_DIR
1944060N04085 1944 16 NI BB NOT_NAMED 1944-02-29 00:00:00 TS 4.40000 84.9000 main 425 413 _________O____ -1 4.40000 84.9000 TC 30 4 349
1944060N04085 1944 16 NI BB NOT_NAMED 1944-02-29 03:00:00 TS 4.59834 84.8650 main 413 387 _________PO___ -1 4.69750 84.8475 TC 30 4.40000 84.9000 1 5 351
1944060N04085 1944 16 NI BB NOT_NAMED 1944-02-29 06:00:00 TS 4.88375 84.8231 main 387 372 _________OP___ -1 5.00000 84.8000 TC 30 4.70938 84.8578 1 6 352
1944060N04085 1944 16 NI BB NOT_NAMED 1944-02-29 09:00:00 TS 5.18214 84.7811 main 372 354 _________PP___ -1 5.30750 84.7575 TC 30 5.01501 84.8125 1 6 351
1944060N04085 1944 16 NI BB NOT_NAMED 1944-02-29 12:00:00 TS 5.45657 84.7305 main 350 342 _________OP___ -1 5.60000 84.7000 TC 30 5.31313 84.7609 1 6 346
1944060N04085 1944 16 NI BB NOT_NAMED 1944-02-29 15:00:00 TS 5.72875 84.6500 main 342 318 _________PO___ -1 5.85750 84.6000 TC 30 5.60000 84.7000 1 6 343
1944060N04085 1944 16 NI BB NOT_NAMED 1944-02-29 18:00:00 TS 5.98625 84.5641 main 318 301 _________OP___ -1 6.10000 84.5000 TC 30 5.87250 84.6281 1 5 344
1944060N04085 1944 16 NI BB NOT_NAMED 1944-02-29 21:00:00 TS 6.24375 84.4963 main 301 281 _________PP___ -1 6.35750 84.4425 TC 30 6.13000 84.5500 1 5 346
1944060N04085 1944 16 NI BB NOT_NAMED 1944-03-01 00:00:00 TS 6.48625 84.4359 main 281 278 _________OP___ -1 6.60000 84.4000 TC 30 6.37250 84.4719 1 5 346
1944060N04085 1944 16 NI BB NOT_NAMED 1944-03-01 03:00:00 TS 6.70375 84.3750 main 278 265 _________PO___ -1 6.80750 84.3500 TC 30 6.60000 84.4000 1 4 345
1944060N04085 1944 16 NI BB NOT_NAMED 1944-03-01 06:00:00 TS 6.90718 84.3214 main 265 265 _________OP___ -1 7.00000 84.3000 TC 30 6.81436 84.3428 1 4 346
1944060N04085 1944 16 NI BB NOT_NAMED 1944-03-01 09:00:00 TS 7.10749 84.2712 main 265 255 _________PP___ -1 7.20000 84.2500 TC 30 7.01499 84.2925 1 4 346
1944060N04085 1944 16 NI BB NOT_NAMED 1944-03-01 12:00:00 TS 7.30406 84.2229 main 256 256 _________OP___ -1 7.40000 84.2000 TC 30 7.20812 84.2459 1 4 347
1944060N04085 1944 16 NI BB NOT_NAMED 1944-03-01 15:00:00 TS 7.50000 84.1750 main 260 252 _________PO___ -1 7.60000 84.1500 TC 30 7.40000 84.2000 1 4 346
1944060N04085 1944 16 NI BB NOT_NAMED 1944-03-01 18:00:00 TS 7.68984 84.1290 main 253 253 _________OP___ -1 7.80000 84.1000 TC 30 7.57968 84.1581 1 4 347
1944060N04085 1944 16 NI BB NOT_NAMED 1944-03-01 21:00:00 TS 7.87000 84.0862 main 255 246 _________PP___ -1 7.97750 84.0575 TC 30 7.76249 84.1149 1 4 346
1944060N04085 1944 16 NI BB NOT_NAMED 1944-03-02 00:00:00 TS 8.08203 84.0321 main 248 248 _________OP___ -1 8.20000 84.0000 TC 30 7.96406 84.0643 1 5 345
1944060N04085 1944 16 NI BB NOT_NAMED 1944-03-02 03:00:00 TS 8.36750 83.9538 main 258 248 _________PO___ -1 8.53500 83.9075 TC 30 8.20000 84.0000 1 6 344
1944060N04085 1944 16 NI BB NOT_NAMED 1944-03-02 06:00:00 TS 8.69860 83.8592 main 262 252 _________OP___ -1 8.90000 83.8000 TC 30 8.49719 83.9185 1 7 344
1944060N04085 1944 16 NI BB NOT_NAMED 1944-03-02 09:00:00 TS 9.01750 83.7612 main 266 261 _________PP___ -1 9.20750 83.7000 TC 30 8.82751 83.8225 1 7 343
1944060N04085 1944 16 NI BB NOT_NAMED 1944-03-02 12:00:00 TS 9.33453 83.6577 main 272 266 _________OP___ -1 9.50000 83.6000 TC 30 9.16907 83.7153 1 7 342
1944060N04085 1944 16 NI BB NOT_NAMED 1944-03-02 15:00:00 TS 9.65374 83.5537 main 282 272 _________PO___ -1 9.80749 83.5075 TC 31 9.50000 83.6000 1 7 341
1944060N04085 1944 16 NI BB NOT_NAMED 1944-03-02 18:00:00 TS 9.95075 83.4492 main 282 282 _________OP___ -1 10.1000 83.4000 TC 32 9.80150 83.4983 1 6 339
1944060N04085 1944 16 NI BB NOT_NAMED 1944-03-02 21:00:00 TS 10.2262 83.3262 main 285 285 _________PP___ -1 10.3650 83.2650 TC 33 10.0874 83.3874 1 6 333
1944060N04085 1944 16 NI BB NOT_NAMED 1944-03-03 00:00:00 TS 10.4773 83.1788 main 295 285 _________OP___ -1 10.6000 83.1000 TC 34 10.3546 83.2577 1 6 327
1944060N04085 1944 16 NI BB NOT_NAMED 1944-03-03 03:00:00 TS 10.7037 83.0075 main 287 283 _________PO___ -1 10.8075 82.9150 TC 41 10.6000 83.1000 2 6 320
1944060N04085 1944 16 NI BB NOT_NAMED 1944-03-03 06:00:00 TS 10.9169 82.7999 main 283 281 _________OP___ -1 11.0000 82.7000 TC 49 10.8338 82.8997 2 6 314
1944060N04085 1944 16 NI BB NOT_NAMED 1944-03-03 09:00:00 TS 11.1263 82.5613 main 281 262 _________PP___ -1 11.2075 82.4500 TC 56 11.0451 82.6726 2 6 310
1944060N04085 1944 16 NI BB NOT_NAMED 1944-03-03 12:00:00 TS 11.3169 82.3170 main 262 235 _________OP___ -1 11.4000 82.2000 TC 64 11.2338 82.4341 2 6 308
1944060N04085 1944 16 NI BB NOT_NAMED 1944-03-03 15:00:00 TS 11.4825 82.0962 main 235 210 _________PO___ -1 11.5650 81.9925 TC 64 11.4000 82.2000 4 5 308
1944060N04085 1944 16 NI BB NOT_NAMED 1944-03-03 18:00:00 TS 11.6211 81.9125 main 210 195 _________OP___ -1 11.7000 81.8000 TC 64 11.5422 82.0250 4 4 306
1944060N04085 1944 16 NI BB NOT_NAMED 1944-03-03 21:00:00 TS 11.7322 81.7410 main 186 161 _________PP___ -1 11.7999 81.6299 TC 64 11.6646 81.8521 4 4 300
1944060N04085 1944 16 NI BB NOT_NAMED 1944-03-04 00:00:00 TS 11.8398 81.5266 main 161 122 _________OP___ -1 11.9000 81.4000 TC 64 11.7796 81.6531 4 6 295
1944060N04085 1944 16 NI BB NOT_NAMED 1944-03-04 03:00:00 TS 11.9713 81.2150 main 122 88 _________PO___ -1 12.0425 81.0300 TC 59 11.9000 81.4000 4 7 293
1944060N04085 1944 16 NI BB NOT_NAMED 1944-03-04 06:00:00 TS 12.1235 80.8328 main 79 39 _________OP___ -1 12.2000 80.6000 TC 54 12.0469 81.0657 4 8 292
1944060N04085 1944 16 NI BB NOT_NAMED 1944-03-04 09:00:00 TS 12.2750 80.4412 main 31 0 _________PP___ -1 12.3499 80.2074 TC 49 12.2001 80.6750 4 8 291
1944060N04085 1944 16 NI BB NOT_NAMED 1944-03-04 12:00:00 TS 12.4266 80.0234 main 0 0 _________OP___ -1 12.5000 79.8000 TC 45 12.3531 80.2469 4 9 290
1944060N04085 1944 16 NI BB NOT_NAMED 1944-03-04 15:00:00 TS 12.5787 79.5788 main 0 0 _________PO___ -1 12.6575 79.3575 TC 41 12.5000 79.8000 3 9 288
1944060N04085 1944 16 NI BB NOT_NAMED 1944-03-04 18:00:00 TS 12.7064 79.1572 main 0 0 _________OP___ -1 12.8000 78.9000 TC 37 12.6361 79.3501 3 9 286
1944060N04085 1944 16 NI BB NOT_NAMED 1944-03-04 21:00:00 TS 12.8218 78.7192 main 0 0 _________PP___ -1 12.9101 78.4475 TC 33 12.7630 78.9003 3 9 284
1944060N04085 1944 16 NI BB NOT_NAMED 1944-03-05 00:00:00 TS 12.9222 78.3002 main 0 0 _________OP___ -1 13.0000 78.0000 TC 30 12.8833 78.4503 3 7 284
1944060N04085 1944 16 NI AS NOT_NAMED 1944-03-05 03:00:00 NR 13.0000 78.0000 main 0 __________O___ -1 TC 13.0000 78.0000 1 6 285

About IBTrACS Database

This database is a web-friendly format of International Best Track Archive for Climate Stewardship (IBTrACS), a global best track data archive curated by NOAA dating back to 1842.

Updated: 2021-12-01